createdAt,value
2023-01-07T00:01:17.618Z,98703.00
2023-01-07T00:03:47.377Z,98707.47
2023-01-07T00:06:17.001Z,98715.97
2023-01-07T00:08:47.922Z,98714.69
2023-01-07T00:11:17.850Z,98711.16
2023-01-07T00:13:45.964Z,98708.28
2023-01-07T00:16:16.597Z,98706.84
2023-01-07T00:18:45.468Z,98717.09
2023-01-07T00:21:15.635Z,98717.56
2023-01-07T00:23:44.729Z,98704.63
2023-01-07T00:26:16.437Z,98702.53
2023-01-07T00:28:46.619Z,98701.75
2023-01-07T00:31:16.675Z,98699.50
2023-01-07T00:33:51.775Z,98697.91
2023-01-07T00:36:20.233Z,98695.97
2023-01-07T00:38:48.667Z,98690.47
2023-01-07T00:41:17.761Z,98690.47
2023-01-07T00:43:45.503Z,98689.03
2023-01-07T00:46:15.415Z,98690.47
2023-01-07T00:48:44.809Z,98689.69
2023-01-07T00:51:14.550Z,98690.84
2023-01-07T00:53:42.796Z,98691.66
2023-01-07T00:56:10.924Z,98685.41
2023-01-07T00:58:40.240Z,98689.41
2023-01-07T01:01:07.981Z,98683.94
2023-01-07T01:03:35.789Z,98683.94
2023-01-07T01:06:04.487Z,98678.63
2023-01-07T01:08:32.177Z,98679.44
2023-01-07T01:11:04.412Z,98680.22
2023-01-07T01:13:32.192Z,98682.63
2023-01-07T01:16:01.263Z,98680.72
2023-01-07T01:18:29.057Z,98678.63
2023-01-07T01:20:56.700Z,98681.56
2023-01-07T01:23:24.338Z,98684.06
2023-01-07T01:25:51.990Z,98686.81
2023-01-07T01:28:19.666Z,98683.28
2023-01-07T01:30:47.341Z,98684.06
2023-01-07T01:33:16.561Z,98675.75
2023-01-07T01:35:44.551Z,98689.53
2023-01-07T01:38:12.203Z,98679.31
2023-01-07T01:40:39.864Z,98677.03
2023-01-07T01:43:27.520Z,98678.19
2023-01-07T01:45:55.479Z,98673.91
2023-01-07T01:48:25.156Z,98668.09
2023-01-07T01:50:53.969Z,98662.50
2023-01-07T01:53:25.503Z,98670.94
2023-01-07T01:55:56.600Z,98670.94
2023-01-07T01:58:31.004Z,98665.00
2023-01-07T02:00:59.044Z,98662.28
2023-01-07T02:03:31.011Z,98656.03
2023-01-07T02:05:59.100Z,98656.84
2023-01-07T02:08:26.824Z,98651.38
2023-01-07T02:11:04.898Z,98656.84
2023-01-07T02:13:43.344Z,98650.75
2023-01-07T02:16:17.648Z,98649.16
2023-01-07T02:19:14.185Z,98652.34
2023-01-07T02:21:51.477Z,98646.25
2023-01-07T02:24:59.162Z,98643.84
2023-01-07T02:27:42.341Z,98653.94
2023-01-07T02:30:47.062Z,98645.28
2023-01-07T02:33:34.441Z,98642.09
2023-01-07T02:36:20.606Z,98639.38
2023-01-07T02:39:00.569Z,98640.88
2023-01-07T02:41:40.615Z,98637.50
2023-01-07T02:44:15.459Z,98633.50
2023-01-07T02:46:47.890Z,98627.72
2023-01-07T02:49:18.503Z,98617.16
2023-01-07T02:51:47.842Z,98619.88
2023-01-07T02:54:21.136Z,98625.81
2023-01-07T02:57:08.536Z,98613.66
2023-01-07T03:00:03.796Z,98615.41
2023-01-07T03:02:50.497Z,98614.91
2023-01-07T03:05:33.251Z,98606.78
2023-01-07T03:08:17.561Z,98608.22
2023-01-07T03:10:51.747Z,98603.09
2023-01-07T03:13:24.298Z,98610.47
2023-01-07T03:15:58.694Z,98602.78
2023-01-07T03:18:29.814Z,98602.16
2023-01-07T03:21:02.924Z,98595.09
2023-01-07T03:23:31.842Z,98595.09
2023-01-07T03:26:02.598Z,98601.31
2023-01-07T03:28:35.173Z,98592.34
2023-01-07T03:31:03.761Z,98584.03
2023-01-07T03:33:38.185Z,98587.41
2023-01-07T03:36:10.156Z,98586.44
2023-01-07T03:38:40.074Z,98584.22
2023-01-07T03:41:07.715Z,98583.41
2023-01-07T03:43:34.411Z,98586.44
2023-01-07T03:46:02.179Z,98583.25
2023-01-07T03:48:30.291Z,98580.84
2023-01-07T03:50:57.967Z,98577.53
2023-01-07T03:53:26.965Z,98578.97
2023-01-07T03:55:54.641Z,98571.47
2023-01-07T03:58:22.281Z,98566.47
2023-01-07T04:00:50.063Z,98569.81
2023-01-07T04:03:17.947Z,98562.00
2023-01-07T04:05:45.701Z,98560.50
2023-01-07T04:08:13.358Z,98557.31
2023-01-07T04:10:42.358Z,98558.63
2023-01-07T04:13:10.093Z,98551.59
2023-01-07T04:15:37.787Z,98554.31
2023-01-07T04:18:05.668Z,98551.41
2023-01-07T04:20:33.298Z,98553.81
2023-01-07T04:23:01.002Z,98543.25
2023-01-07T04:25:28.671Z,98537.13
2023-01-07T04:27:57.673Z,98539.41
2023-01-07T04:30:25.465Z,98531.03
2023-01-07T04:32:53.225Z,98534.25
2023-01-07T04:35:20.924Z,98533.44
2023-01-07T04:37:48.614Z,98526.25
2023-01-07T04:40:16.389Z,98532.50
2023-01-07T04:42:44.038Z,98529.66
2023-01-07T04:45:13.318Z,98514.44
2023-01-07T04:47:41.007Z,98512.84
2023-01-07T04:50:09.859Z,98518.50
2023-01-07T04:52:37.750Z,98517.81
2023-01-07T04:55:06.161Z,98518.28
2023-01-07T04:57:34.009Z,98511.09
2023-01-07T05:00:01.651Z,98507.09
2023-01-07T05:02:30.679Z,98510.94
2023-01-07T05:04:58.391Z,98511.88
2023-01-07T05:07:26.098Z,98501.00
2023-01-07T05:09:53.758Z,98502.28
2023-01-07T05:12:21.441Z,98488.19
2023-01-07T05:14:49.050Z,98483.44
2023-01-07T05:17:16.715Z,98471.75
2023-01-07T05:19:45.793Z,98480.50
2023-01-07T05:22:13.472Z,98477.19
2023-01-07T05:24:41.217Z,98477.19
2023-01-07T05:27:08.888Z,98476.66
2023-01-07T05:29:36.595Z,98473.28
2023-01-07T05:32:04.693Z,98473.47
2023-01-07T05:34:32.345Z,98471.06
2023-01-07T05:37:01.395Z,98474.34
2023-01-07T05:39:29.057Z,98476.25
2023-01-07T05:41:56.678Z,98467.28
2023-01-07T05:44:24.475Z,98473.22
2023-01-07T05:46:52.228Z,98472.88
2023-01-07T05:49:19.864Z,98470.78
2023-01-07T05:51:47.563Z,98472.81
2023-01-07T05:54:16.627Z,98469.63
2023-01-07T05:56:44.242Z,98469.19
2023-01-07T05:59:11.860Z,98463.59
2023-01-07T06:01:39.544Z,98463.59
2023-01-07T06:04:07.586Z,98451.69
2023-01-07T06:06:35.280Z,98452.16
2023-01-07T06:09:02.910Z,98451.44
2023-01-07T06:11:32.091Z,98455.53
2023-01-07T06:13:59.753Z,98450.41
2023-01-07T06:16:27.458Z,98455.38
2023-01-07T06:18:55.128Z,98445.34
2023-01-07T06:21:22.776Z,98446.16
2023-01-07T06:23:50.469Z,98447.56
2023-01-07T06:26:18.130Z,98445.03
2023-01-07T06:28:47.114Z,98446.31
2023-01-07T06:31:14.768Z,98443.78
2023-01-07T06:33:42.472Z,98431.28
2023-01-07T06:36:10.540Z,98444.72
2023-01-07T06:38:38.217Z,98441.19
2023-01-07T06:41:06.261Z,98441.84
2023-01-07T06:43:36.316Z,98433.50
2023-01-07T06:46:05.704Z,98433.19
2023-01-07T06:48:33.422Z,98427.41
2023-01-07T06:51:01.095Z,98425.16
2023-01-07T06:53:28.799Z,98427.53
2023-01-07T06:55:56.403Z,98427.25
2023-01-07T06:58:24.087Z,98425.81
2023-01-07T07:00:51.868Z,98420.50
2023-01-07T07:03:20.904Z,98428.31
2023-01-07T07:05:48.600Z,98422.47
2023-01-07T07:08:16.385Z,98419.25
2023-01-07T07:10:44.002Z,98423.44
2023-01-07T07:13:11.991Z,98419.41
2023-01-07T07:15:39.657Z,98418.00
2023-01-07T07:18:07.345Z,98412.38
2023-01-07T07:20:36.476Z,98411.13
2023-01-07T07:23:04.181Z,98419.13
2023-01-07T07:25:31.864Z,98413.84
2023-01-07T07:27:59.498Z,98411.13
2023-01-07T07:30:46.141Z,98407.59
2023-01-07T07:33:15.948Z,98403.25
2023-01-07T07:35:45.550Z,98404.31
2023-01-07T07:38:13.254Z,98401.09
2023-01-07T07:40:41.030Z,98414.94
2023-01-07T07:43:11.789Z,98403.75
2023-01-07T07:45:40.746Z,98398.94
2023-01-07T07:48:09.598Z,98393.16
2023-01-07T07:50:37.798Z,98396.03
2023-01-07T07:53:10.003Z,98384.50
2023-01-07T07:55:38.552Z,98392.69
2023-01-07T07:58:06.659Z,98388.06
2023-01-07T08:00:34.343Z,98398.94
2023-01-07T08:03:02.143Z,98387.75
2023-01-07T08:05:30.076Z,98377.66
2023-01-07T08:07:58.197Z,98389.66
2023-01-07T08:10:28.967Z,98376.22
2023-01-07T08:12:56.711Z,98377.97
2023-01-07T08:15:24.375Z,98382.13
2023-01-07T08:17:59.083Z,98377.47
2023-01-07T08:20:26.812Z,98381.03
2023-01-07T08:22:54.569Z,98372.84
2023-01-07T08:25:22.232Z,98369.31
2023-01-07T08:27:51.249Z,98364.81
2023-01-07T08:30:20.449Z,98362.75
2023-01-07T08:32:48.464Z,98360.38
2023-01-07T08:35:16.985Z,98350.88
2023-01-07T08:37:44.879Z,98345.38
2023-01-07T08:40:13.660Z,98345.56
2023-01-07T08:42:41.849Z,98350.91
2023-01-07T08:45:12.714Z,98353.16
2023-01-07T08:47:40.451Z,98345.38
2023-01-07T08:50:08.775Z,98334.28
2023-01-07T08:52:36.460Z,98337.66
2023-01-07T08:55:04.294Z,98337.28
2023-01-07T08:57:31.990Z,98335.88
2023-01-07T08:59:59.644Z,98330.63
2023-01-07T09:02:28.674Z,98330.22
2023-01-07T09:04:56.309Z,98333.16
2023-01-07T09:07:23.958Z,98327.31
2023-01-07T09:09:51.571Z,98333.94
2023-01-07T09:12:19.202Z,98331.03
2023-01-07T09:14:46.795Z,98319.47
2023-01-07T09:17:14.437Z,98317.97
2023-01-07T09:19:43.404Z,98323.00
2023-01-07T09:22:11.235Z,98323.34
2023-01-07T09:24:38.959Z,98321.75
2023-01-07T09:27:06.661Z,98330.66
2023-01-07T09:29:34.371Z,98325.66
2023-01-07T09:32:02.021Z,98327.59
2023-01-07T09:34:29.724Z,98329.97
2023-01-07T09:36:58.680Z,98333.38
2023-01-07T09:39:26.761Z,98329.13
2023-01-07T09:42:03.156Z,98326.53
2023-01-07T09:44:46.178Z,98329.13
2023-01-07T09:47:17.760Z,98326.34
2023-01-07T09:49:48.731Z,98327.00
2023-01-07T09:52:23.724Z,98324.50
2023-01-07T09:54:54.315Z,98321.59
2023-01-07T09:57:22.005Z,98317.28
2023-01-07T09:59:49.738Z,98315.81
2023-01-07T10:02:28.702Z,98309.09
2023-01-07T10:05:02.842Z,98318.22
2023-01-07T10:07:39.853Z,98307.78
2023-01-07T10:10:15.378Z,98310.50
2023-01-07T10:12:51.790Z,98306.84
2023-01-07T10:15:27.882Z,98295.28
2023-01-07T10:18:19.743Z,98294.41
2023-01-07T10:20:52.600Z,98298.47
2023-01-07T10:23:26.050Z,98278.28
2023-01-07T10:25:56.385Z,98276.91
2023-01-07T10:28:31.218Z,98267.63
2023-01-07T10:31:01.309Z,98276.19
2023-01-07T10:33:32.274Z,98265.81
2023-01-07T10:36:09.995Z,98259.81
2023-01-07T10:38:43.085Z,98246.56
2023-01-07T10:41:18.635Z,98244.75
2023-01-07T10:44:07.404Z,98243.41
2023-01-07T10:46:49.536Z,98242.03
2023-01-07T10:49:34.520Z,98225.00
2023-01-07T10:52:18.898Z,98228.63
2023-01-07T10:55:03.926Z,98224.19
2023-01-07T10:57:33.662Z,98223.16
2023-01-07T11:00:04.532Z,98220.13
2023-01-07T11:02:32.464Z,98218.53
2023-01-07T11:05:01.103Z,98225.91
2023-01-07T11:07:43.468Z,98217.16
2023-01-07T11:10:17.811Z,98209.78
2023-01-07T11:12:49.312Z,98210.22
2023-01-07T11:15:23.376Z,98207.69
2023-01-07T11:17:55.631Z,98198.63
2023-01-07T11:20:48.759Z,98203.16
2023-01-07T11:23:31.037Z,98197.81
2023-01-07T11:26:13.927Z,98190.69
2023-01-07T11:28:51.688Z,98189.78
2023-01-07T11:31:20.332Z,98190.91
2023-01-07T11:34:02.033Z,98185.47
2023-01-07T11:36:41.602Z,98180.25
2023-01-07T11:39:18.343Z,98176.81
2023-01-07T11:41:54.719Z,98172.47
2023-01-07T11:44:22.763Z,98172.47
2023-01-07T11:46:50.663Z,98166.34
2023-01-07T11:49:24.785Z,98159.06
2023-01-07T11:51:52.974Z,98160.91
2023-01-07T11:54:23.228Z,98154.97
2023-01-07T11:56:51.644Z,98141.69
2023-01-07T11:59:31.763Z,98146.88
2023-01-07T12:02:00.742Z,98136.97
2023-01-07T12:04:30.529Z,98141.78
2023-01-07T12:07:01.385Z,98125.06
2023-01-07T12:09:36.102Z,98117.47
2023-01-07T12:12:36.947Z,98117.88
2023-01-07T12:15:18.126Z,98116.94
2023-01-07T12:17:48.559Z,98115.47
2023-01-07T12:20:42.892Z,98110.97
2023-01-07T12:23:24.553Z,98104.50
2023-01-07T12:26:03.758Z,98107.03
2023-01-07T12:28:46.918Z,98095.38
2023-01-07T12:31:27.489Z,98093.94
2023-01-07T12:34:07.674Z,98096.00
2023-01-07T12:36:42.422Z,98096.28
2023-01-07T12:39:16.801Z,98088.53
2023-01-07T12:41:49.788Z,98091.72
2023-01-07T12:44:21.015Z,98101.94
2023-01-07T12:47:30.957Z,98096.38
2023-01-07T12:49:52.166Z,98094.44
2023-01-07T12:52:24.521Z,98085.25
2023-01-07T12:54:57.065Z,98084.13
2023-01-07T12:57:29.499Z,98083.50
2023-01-07T13:00:06.008Z,98082.75
2023-01-07T13:02:40.037Z,98076.63
2023-01-07T13:05:13.695Z,98067.41
2023-01-07T13:07:48.727Z,98055.38
2023-01-07T13:10:23.954Z,98059.19
2023-01-07T13:12:55.477Z,98055.38
2023-01-07T13:15:26.887Z,98050.75
2023-01-07T13:17:57.812Z,98045.97
2023-01-07T13:20:39.887Z,98034.38
2023-01-07T13:23:09.202Z,98037.16
2023-01-07T13:25:52.230Z,98026.75
2023-01-07T13:28:51.567Z,98014.69
2023-01-07T13:31:53.734Z,98012.00
2023-01-07T13:34:29.258Z,98008.31
2023-01-07T13:37:11.692Z,98015.28
2023-01-07T13:39:53.040Z,98016.38
2023-01-07T13:42:33.110Z,98007.97
2023-01-07T13:45:09.140Z,98000.56
2023-01-07T13:47:44.261Z,98004.63
2023-01-07T13:50:22.583Z,97992.34
2023-01-07T13:53:02.392Z,97996.69
2023-01-07T13:55:37.229Z,97988.78
2023-01-07T13:58:35.781Z,97986.91
2023-01-07T14:01:05.815Z,97988.22
2023-01-07T14:03:53.236Z,97992.78
2023-01-07T14:06:42.353Z,97987.31
2023-01-07T14:09:38.461Z,97989.66
2023-01-07T14:12:42.643Z,97977.16
2023-01-07T14:15:50.086Z,97989.66
2023-01-07T14:19:02.937Z,97981.34
2023-01-07T14:21:59.314Z,97979.06
2023-01-07T14:24:55.409Z,97979.06
2023-01-07T14:27:46.438Z,97987.69
2023-01-07T14:30:24.284Z,97986.81
2023-01-07T14:33:01.233Z,97989.91
2023-01-07T14:35:34.168Z,97983.63
2023-01-07T14:38:41.976Z,97984.53
2023-01-07T14:41:11.352Z,97978.34
2023-01-07T14:44:05.120Z,97979.16
2023-01-07T14:46:48.934Z,97977.66
2023-01-07T14:49:33.554Z,97979.78
2023-01-07T14:52:08.890Z,97979.59
2023-01-07T14:54:57.928Z,97981.97
2023-01-07T14:57:36.235Z,97981.63
2023-01-07T15:00:23.630Z,97980.72
2023-01-07T15:03:20.710Z,97986.44
2023-01-07T15:06:14.890Z,97972.53
2023-01-07T15:09:08.257Z,97973.94
2023-01-07T15:11:59.157Z,97970.66
2023-01-07T15:14:49.087Z,97969.66
2023-01-07T15:17:17.817Z,97959.78
2023-01-07T15:19:46.470Z,97962.22
2023-01-07T15:22:26.123Z,97966.78
2023-01-07T15:25:01.874Z,97975.41
2023-01-07T15:27:39.488Z,97966.72
2023-01-07T15:30:17.442Z,97970.25
2023-01-07T15:32:56.200Z,97966.28
2023-01-07T15:35:27.199Z,97964.69
2023-01-07T15:37:55.396Z,97961.25
2023-01-07T15:40:26.248Z,97965.56
2023-01-07T15:42:58.701Z,97958.06
2023-01-07T15:45:28.725Z,97961.13
2023-01-07T15:48:07.777Z,97962.41
2023-01-07T15:50:37.558Z,97958.75
2023-01-07T15:53:19.869Z,97960.72
2023-01-07T15:55:55.365Z,97959.25
2023-01-07T15:58:33.888Z,97966.06
2023-01-07T16:01:03.422Z,97961.31
2023-01-07T16:03:32.507Z,97963.00
2023-01-07T16:06:01.656Z,97964.47
2023-01-07T16:08:31.284Z,97968.03
2023-01-07T16:11:02.102Z,97961.66
2023-01-07T16:13:32.328Z,97966.31
2023-01-07T16:16:03.173Z,97968.63
2023-01-07T16:18:32.346Z,97963.06
2023-01-07T16:21:03.334Z,97963.75
2023-01-07T16:23:33.748Z,97964.09
2023-01-07T16:26:06.751Z,97961.59
2023-01-07T16:28:40.856Z,97955.22
2023-01-07T16:31:11.552Z,97955.69
2023-01-07T16:33:40.563Z,97956.03
2023-01-07T16:36:15.338Z,97954.81
2023-01-07T16:38:44.781Z,97951.38
2023-01-07T16:41:21.677Z,97957.50
2023-01-07T16:43:52.438Z,97959.13
2023-01-07T16:46:24.540Z,97958.78
2023-01-07T16:49:19.806Z,97960.00
2023-01-07T16:51:49.960Z,97956.63
2023-01-07T16:54:40.206Z,97956.88
2023-01-07T16:57:29.392Z,97957.41
2023-01-07T17:00:01.931Z,97942.09
2023-01-07T17:02:33.054Z,97943.59
2023-01-07T17:05:16.362Z,97938.25
2023-01-07T17:07:48.570Z,97944.16
2023-01-07T17:10:26.319Z,97945.72
2023-01-07T17:12:59.893Z,97932.56
2023-01-07T17:15:36.969Z,97933.47
2023-01-07T17:18:32.835Z,97931.50
2023-01-07T17:21:01.573Z,97923.91
2023-01-07T17:23:33.683Z,97917.09
2023-01-07T17:26:04.142Z,97924.09
2023-01-07T17:28:33.944Z,97930.91
2023-01-07T17:31:05.041Z,97919.13
2023-01-07T17:33:32.841Z,97925.22
2023-01-07T17:36:00.528Z,97917.41
2023-01-07T17:38:30.093Z,97919.31
2023-01-07T17:40:57.903Z,97915.28
2023-01-07T17:43:36.820Z,97918.66
2023-01-07T17:46:07.657Z,97913.81
2023-01-07T17:48:36.615Z,97902.31
2023-01-07T17:51:05.353Z,97915.69
2023-01-07T17:53:36.594Z,97919.97
2023-01-07T17:56:05.111Z,97917.47
2023-01-07T17:58:34.151Z,97917.91
2023-01-07T18:01:06.263Z,97924.66
2023-01-07T18:03:35.455Z,97930.34
2023-01-07T18:06:12.915Z,97925.84
2023-01-07T18:08:40.559Z,97924.00
2023-01-07T18:11:25.645Z,97930.78
2023-01-07T18:13:53.352Z,97928.78
2023-01-07T18:16:23.501Z,97919.97
2023-01-07T18:18:52.653Z,97927.34
2023-01-07T18:21:20.568Z,97915.81
2023-01-07T18:23:48.358Z,97920.31
2023-01-07T18:26:16.525Z,97924.16
2023-01-07T18:28:44.234Z,97921.63
2023-01-07T18:31:12.085Z,97913.72
2023-01-07T18:33:39.773Z,97915.50
2023-01-07T18:36:09.211Z,97910.66
2023-01-07T18:38:36.916Z,97911.50
2023-01-07T18:41:04.967Z,97912.50
2023-01-07T18:43:32.911Z,97908.56
2023-01-07T18:46:00.843Z,97904.31
2023-01-07T18:48:28.553Z,97903.66
2023-01-07T18:50:56.598Z,97905.09
2023-01-07T18:53:26.710Z,97907.09
2023-01-07T18:55:59.506Z,97909.06
2023-01-07T18:58:27.308Z,97904.44
2023-01-07T19:00:55.227Z,97903.72
2023-01-07T19:03:22.915Z,97900.38
2023-01-07T19:05:50.484Z,97902.97
2023-01-07T19:08:18.124Z,97906.78
2023-01-07T19:10:47.915Z,97908.56
2023-01-07T19:13:15.614Z,97907.00
2023-01-07T19:15:43.311Z,97910.75
2023-01-07T19:18:11.077Z,97914.88
2023-01-07T19:20:38.822Z,97911.84
2023-01-07T19:23:06.580Z,97910.47
2023-01-07T19:25:34.490Z,97908.22
2023-01-07T19:28:03.694Z,97906.44
2023-01-07T19:30:31.354Z,97910.47
2023-01-07T19:32:59.875Z,97895.78
2023-01-07T19:35:27.994Z,97894.19
2023-01-07T19:37:55.750Z,97898.53
2023-01-07T19:40:23.636Z,97897.88
2023-01-07T19:42:51.306Z,97895.78
2023-01-07T19:45:20.284Z,97892.78
2023-01-07T19:47:48.134Z,97898.38
2023-01-07T19:50:16.144Z,97882.25
2023-01-07T19:52:44.020Z,97886.75
2023-01-07T19:55:12.025Z,97894.56
2023-01-07T19:57:40.105Z,97892.31
2023-01-07T20:00:09.541Z,97884.34
2023-01-07T20:02:38.615Z,97876.50
2023-01-07T20:05:07.234Z,97871.25
2023-01-07T20:07:35.028Z,97860.63
2023-01-07T20:10:02.914Z,97855.00
2023-01-07T20:12:30.619Z,97866.56
2023-01-07T20:14:58.273Z,97857.91
2023-01-07T20:17:26.052Z,97861.75
2023-01-07T20:19:55.150Z,97866.88
2023-01-07T20:22:23.019Z,97857.94
2023-01-07T20:24:50.734Z,97855.09
2023-01-07T20:27:18.465Z,97855.72
2023-01-07T20:29:46.472Z,97850.31
2023-01-07T20:32:14.112Z,97847.81
2023-01-07T20:34:41.807Z,97843.44
2023-01-07T20:37:10.893Z,97848.06
2023-01-07T20:39:38.605Z,97848.44
2023-01-07T20:42:06.484Z,97848.78
2023-01-07T20:44:34.597Z,97849.16
2023-01-07T20:47:02.557Z,97850.75
2023-01-07T20:49:30.221Z,97841.81
2023-01-07T20:52:17.939Z,97835.16
2023-01-07T20:54:47.336Z,97827.50
2023-01-07T20:57:15.202Z,97832.13
2023-01-07T20:59:42.918Z,97813.16
2023-01-07T21:02:15.979Z,97815.84
2023-01-07T21:04:44.532Z,97807.75
2023-01-07T21:07:12.312Z,97816.50
2023-01-07T21:09:43.389Z,97835.50
2023-01-07T21:12:11.222Z,97831.97
2023-01-07T21:14:38.989Z,97821.16
2023-01-07T21:17:07.104Z,97818.75
2023-01-07T21:19:35.067Z,97825.94
2023-01-07T21:22:02.881Z,97818.47
2023-01-07T21:24:31.630Z,97818.13
2023-01-07T21:27:00.901Z,97810.31
2023-01-07T21:29:28.903Z,97813.88
2023-01-07T21:31:57.476Z,97811.00
2023-01-07T21:34:25.503Z,97815.47
2023-01-07T21:36:53.400Z,97817.22
2023-01-07T21:39:21.213Z,97813.72
2023-01-07T21:41:49.372Z,97814.69
2023-01-07T21:44:20.197Z,97815.34
2023-01-07T21:46:50.337Z,97812.03
2023-01-07T21:49:19.114Z,97819.50
2023-01-07T21:51:46.990Z,97815.22
2023-01-07T21:54:14.822Z,97806.94
2023-01-07T21:56:42.752Z,97802.94
2023-01-07T21:59:10.722Z,97805.66
2023-01-07T22:01:39.974Z,97816.00
2023-01-07T22:04:07.967Z,97822.22
2023-01-07T22:06:37.326Z,97815.22
2023-01-07T22:09:07.778Z,97814.25
2023-01-07T22:11:38.652Z,97807.91
2023-01-07T22:14:06.520Z,97822.25
2023-01-07T22:16:34.517Z,97830.50
2023-01-07T22:19:05.166Z,97822.06
2023-01-07T22:21:33.444Z,97829.59
2023-01-07T22:24:01.283Z,97815.56
2023-01-07T22:26:29.112Z,97826.19
2023-01-07T22:29:01.301Z,97806.31
2023-01-07T22:31:32.576Z,97808.25
2023-01-07T22:34:00.594Z,97805.84
2023-01-07T22:36:37.768Z,97813.53
2023-01-07T22:39:10.200Z,97808.59
2023-01-07T22:41:38.957Z,97817.00
2023-01-07T22:44:14.050Z,97810.81
2023-01-07T22:46:46.233Z,97807.16
2023-01-07T22:49:16.574Z,97810.81
2023-01-07T22:51:49.422Z,97807.16
2023-01-07T22:54:18.306Z,97803.50
2023-01-07T22:56:47.534Z,97804.13
2023-01-07T22:59:16.232Z,97804.63
2023-01-07T23:01:44.035Z,97795.22
2023-01-07T23:04:11.781Z,97794.13
2023-01-07T23:06:39.614Z,97799.66
2023-01-07T23:09:08.780Z,97797.28
2023-01-07T23:11:50.737Z,97797.28
2023-01-07T23:14:20.420Z,97793.94
2023-01-07T23:16:48.753Z,97781.38
2023-01-07T23:19:19.371Z,97778.97
2023-01-07T23:21:48.496Z,97777.09
2023-01-07T23:24:17.920Z,97763.22
2023-01-07T23:26:47.533Z,97764.53
2023-01-07T23:29:15.395Z,97755.44
2023-01-07T23:31:43.188Z,97765.16
2023-01-07T23:34:11.097Z,97751.63
2023-01-07T23:36:39.563Z,97741.13
2023-01-07T23:39:08.080Z,97731.91
2023-01-07T23:41:37.244Z,97742.25
2023-01-07T23:44:05.219Z,97746.69
2023-01-07T23:46:33.160Z,97741.13
2023-01-07T23:49:00.861Z,97745.25
2023-01-07T23:51:28.650Z,97739.53
2023-01-07T23:53:56.420Z,97736.66
2023-01-07T23:56:24.197Z,97728.44
2023-01-07T23:58:53.300Z,97721.75
